Time;durP1;ratioP1;P1;durP2;ratioP2;P2;SDS_P1;SDS_P2;PMS_P1;PMS_P2;Temp;Humidity;BMP_temperature;BMP_pressure;BME280_temperature;BME280_humidity;BME280_pressure;Samples;Min_cycle;Max_cycle;Signal;HPM_P1;HPM_P2
2023/11/20 00:01:52;;;;;;;4.40;2.22;;;;;;;7.10;45.89;94501.94;4161820;28;20072;-77
2023/11/20 00:03:54;;;;;;;6.65;2.72;;;;;;;7.00;46.57;94498.56;4188814;28;20052;-81
2023/11/20 00:05:56;;;;;;;4.20;2.35;;;;;;;6.91;47.03;94501.03;4181138;28;20052;-81
2023/11/20 00:07:58;;;;;;;6.82;3.40;;;;;;;6.84;47.21;94504.34;4181384;28;20107;-78
2023/11/20 00:10:00;;;;;;;4.85;2.85;;;;;;;6.84;47.12;94515.59;4177922;28;20399;-78
2023/11/20 00:12:02;;;;;;;5.47;4.00;;;;;;;6.71;47.36;94523.69;4171891;28;20330;-79
2023/11/20 00:14:06;;;;;;;5.07;3.30;;;;;;;6.74;47.54;94522.59;4176456;28;20049;-78
2023/11/20 00:16:10;;;;;;;6.50;3.88;;;;;;;6.55;47.55;94515.63;4180491;28;20546;-77
2023/11/20 00:18:12;;;;;;;;;;;;;;;6.53;47.27;94527.97;4182063;28;20084;-80
2023/11/20 00:20:14;;;;;;;7.30;4.22;;;;;;;6.55;47.40;94519.03;4176743;28;19979;-79
2023/11/20 00:22:16;;;;;;;7.70;3.80;;;;;;;6.57;47.32;94519.72;4181017;28;20057;-78
2023/11/20 00:24:17;;;;;;;5.90;3.55;;;;;;;6.55;47.61;94521.66;4180586;28;20555;-80
2023/11/20 00:26:19;;;;;;;7.35;4.03;;;;;;;6.55;47.71;94529.47;4172124;28;20102;-79
2023/11/20 00:28:21;;;;;;;11.60;4.05;;;;;;;6.38;48.69;94540.56;4181411;28;20052;-78
2023/11/20 00:30:23;;;;;;;7.45;3.70;;;;;;;6.35;48.71;94548.66;4180305;28;20476;-81
2023/11/20 00:32:26;;;;;;;8.85;3.50;;;;;;;6.26;49.71;94546.84;4179843;28;20391;-78
2023/11/20 00:34:28;;;;;;;6.88;3.50;;;;;;;6.22;49.86;94555.91;4180654;28;20059;-79
2023/11/20 00:36:30;;;;;;;5.03;3.53;;;;;;;6.17;49.71;94573.69;4172429;28;20431;-81
2023/11/20 00:38:32;;;;;;;7.43;3.30;;;;;;;6.16;50.27;94570.28;4181107;28;20484;-79
2023/11/20 00:40:34;;;;;;;5.75;3.88;;;;;;;6.04;50.28;94574.75;4178337;28;20415;-78
2023/11/20 00:42:36;;;;;;;5.82;3.45;;;;;;;5.87;51.09;94573.63;4161891;28;20049;-79
2023/11/20 00:44:37;;;;;;;6.40;3.97;;;;;;;5.72;51.37;94573.16;4182442;28;20091;-80
2023/11/20 00:46:40;;;;;;;6.22;3.72;;;;;;;5.55;52.08;94568.59;4180500;28;20044;-78
2023/11/20 00:48:44;;;;;;;9.65;3.72;;;;;;;5.69;51.63;94562.22;4168248;28;20061;-77
2023/11/20 00:50:46;;;;;;;7.07;3.75;;;;;;;5.82;51.58;94554.16;4180154;28;20064;-79
2023/11/20 00:52:47;;;;;;;7.55;3.67;;;;;;;5.91;51.86;94558.56;4174926;28;20049;-80
2023/11/20 00:54:49;;;;;;;7.60;3.83;;;;;;;5.86;51.34;94560.75;4156778;28;20048;-78
2023/11/20 00:56:51;;;;;;;6.13;3.80;;;;;;;5.90;51.07;94546.53;4177137;28;20506;-79
2023/11/20 00:58:53;;;;;;;6.90;3.90;;;;;;;5.95;51.26;94539.16;4178426;28;20052;-79
2023/11/20 01:00:56;;;;;;;8.80;4.45;;;;;;;5.93;51.02;94528.88;4179255;28;20437;-79
2023/11/20 01:02:59;;;;;;;5.68;3.80;;;;;;;6.02;50.99;94529.03;4180812;28;20182;-79
2023/11/20 01:05:01;;;;;;;7.68;4.03;;;;;;;6.00;51.09;94518.81;4145231;28;20050;-79
2023/11/20 01:07:03;;;;;;;4.55;3.53;;;;;;;5.88;51.37;94512.84;4177715;28;20060;-79
2023/11/20 01:09:06;;;;;;;5.93;3.47;;;;;;;5.89;51.88;94492.88;4171875;28;20049;-78
2023/11/20 01:11:09;;;;;;;5.60;3.42;;;;;;;6.02;50.92;94493.47;4177975;28;20053;-80
2023/11/20 01:13:10;;;;;;;5.70;3.40;;;;;;;5.97;50.94;94487.03;4179220;28;20048;-79
2023/11/20 01:15:12;;;;;;;5.88;3.60;;;;;;;6.00;51.46;94504.94;4178299;28;20048;-80
2023/11/20 01:17:16;;;;;;;6.43;3.55;;;;;;;5.86;51.54;94509.56;4178413;28;20411;-77
2023/11/20 01:19:18;;;;;;;9.02;4.85;;;;;;;5.75;52.17;94507.91;4178930;28;20053;-79
2023/11/20 01:21:20;;;;;;;9.35;4.30;;;;;;;5.82;51.83;94508.19;4179417;28;20392;-78
2023/11/20 01:23:22;;;;;;;10.02;5.25;;;;;;;5.87;51.61;94510.38;4179643;28;20052;-80
2023/11/20 01:25:24;;;;;;;10.63;5.20;;;;;;;5.93;51.57;94505.47;4178530;28;20140;-80
2023/11/20 01:27:26;;;;;;;4.90;3.08;;;;;;;5.94;51.26;94501.94;4168047;28;20063;-77
2023/11/20 01:29:28;;;;;;;4.20;2.60;;;;;;;5.99;50.76;94506.75;4191203;28;20071;-77
2023/11/20 01:31:30;;;;;;;3.40;2.15;;;;;;;6.16;50.32;94500.03;4163918;28;20137;-78
2023/11/20 01:33:32;;;;;;;3.13;2.50;;;;;;;6.38;49.33;94503.31;4178510;28;20162;-80
2023/11/20 01:35:34;;;;;;;3.25;2.10;;;;;;;6.49;49.05;94514.38;4178949;28;20407;-80
2023/11/20 01:37:36;;;;;;;4.90;1.80;;;;;;;6.54;49.08;94516.59;4178441;28;20048;-78
2023/11/20 01:39:38;;;;;;;3.05;1.75;;;;;;;6.60;48.44;94531.63;4143963;28;20528;-80
2023/11/20 01:41:41;;;;;;;3.35;1.98;;;;;;;6.73;48.27;94524.38;4176750;28;20080;-80
2023/11/20 01:43:43;;;;;;;4.47;1.60;;;;;;;6.79;47.82;94520.38;4175177;28;20049;-81
2023/11/20 01:45:46;;;;;;;3.30;1.90;;;;;;;6.87;47.66;94528.31;4178602;28;20047;-79
2023/11/20 01:47:48;;;;;;;3.00;1.52;;;;;;;6.93;47.11;94535.56;4160726;28;20065;-78
2023/11/20 01:49:50;;;;;;;3.30;1.50;;;;;;;7.02;47.05;94528.69;4177910;28;20156;-77
2023/11/20 01:51:52;;;;;;;2.35;1.52;;;;;;;7.12;46.80;94518.22;4169248;28;20084;-79
2023/11/20 01:53:57;;;;;;;2.10;1.42;;;;;;;7.21;46.81;94514.78;4173289;28;20513;-78
2023/11/20 01:55:59;;;;;;;2.72;1.33;;;;;;;7.35;46.56;94516.09;4158032;28;20077;-81
2023/11/20 01:58:01;;;;;;;3.30;1.67;;;;;;;7.41;46.07;94525.13;4159589;28;20411;-78
2023/11/20 02:00:09;;;;;;;2.40;1.40;;;;;;;7.35;46.34;94522.13;4153522;28;20052;-78
2023/11/20 02:02:11;;;;;;;2.63;1.77;;;;;;;7.23;46.55;94518.06;4179103;28;20049;-79
2023/11/20 02:04:14;;;;;;;3.20;1.92;;;;;;;7.19;47.03;94508.91;4160990;28;20507;-79
2023/11/20 02:06:16;;;;;;;3.22;1.70;;;;;;;7.23;47.22;94504.19;4177893;28;20458;-78
2023/11/20 02:08:18;;;;;;;2.63;1.77;;;;;;;7.27;46.76;94511.63;4178443;28;20047;-78
2023/11/20 02:10:20;;;;;;;1.88;1.33;;;;;;;7.34;47.14;94512.69;4159754;28;20150;-79
2023/11/20 02:12:22;;;;;;;3.83;1.85;;;;;;;7.30;47.25;94521.75;4177059;28;20348;-79
2023/11/20 02:14:24;;;;;;;4.13;2.22;;;;;;;7.24;47.08;94506.69;4178212;28;20060;-76
2023/11/20 02:16:26;;;;;;;3.13;1.63;;;;;;;7.28;47.56;94507.22;4173981;28;20047;-78
2023/11/20 02:18:33;;;;;;;3.95;1.80;;;;;;;7.24;47.08;94506.69;4178056;28;20053;-80
2023/11/20 02:20:36;;;;;;;4.00;1.90;;;;;;;7.27;47.19;94509.00;4182471;28;20538;-79
2023/11/20 02:22:38;;;;;;;2.88;1.65;;;;;;;7.29;47.41;94496.66;4184293;28;20048;-80
2023/11/20 02:24:40;;;;;;;3.75;2.30;;;;;;;7.35;47.37;94510.88;4182808;28;20114;-80
2023/11/20 02:26:54;;;;;;;3.15;2.17;;;;;;;7.37;47.61;94514.97;4163521;28;20493;-80
2023/11/20 02:29:26;;;;;;;4.43;2.35;;;;;;;7.33;47.96;94516.22;4172523;28;20045;-80
2023/11/20 02:31:31;;;;;;;5.85;3.15;;;;;;;6.97;48.40;94510.88;4182384;28;20516;-78
2023/11/20 02:33:39;;;;;;;7.60;3.47;;;;;;;6.68;49.50;94502.31;4183543;28;20056;-78
2023/11/20 02:35:41;;;;;;;5.80;3.30;;;;;;;6.63;49.81;94504.53;4166322;28;20053;-80
2023/11/20 02:37:43;;;;;;;7.47;4.00;;;;;;;6.36;50.69;94506.06;4183104;28;20120;-79
2023/11/20 02:39:51;;;;;;;5.03;3.30;;;;;;;6.03;51.72;94510.72;4183821;28;20080;-79
2023/11/20 02:41:53;;;;;;;7.72;3.85;;;;;;;6.02;52.03;94522.06;4181995;28;20065;-81
2023/11/20 02:43:55;;;;;;;5.43;3.17;;;;;;;6.09;51.24;94525.78;4178913;28;20103;-79
2023/11/20 02:45:58;;;;;;;4.72;3.00;;;;;;;6.08;51.72;94521.53;4178905;28;20037;-79
2023/11/20 02:48:00;;;;;;;5.03;2.60;;;;;;;6.17;51.32;94529.47;4180749;28;20049;-79
2023/11/20 02:50:04;;;;;;;5.22;2.42;;;;;;;6.33;50.47;94529.75;4180405;28;20067;-79
2023/11/20 02:52:07;;;;;;;5.97;2.90;;;;;;;6.49;50.49;94529.19;4181032;28;20045;-78
2023/11/20 02:54:08;;;;;;;3.97;2.45;;;;;;;6.44;50.01;94521.00;4180056;28;20126;-78
2023/11/20 02:56:10;;;;;;;5.32;3.08;;;;;;;6.54;49.93;94520.03;4180176;28;20049;-77
2023/11/20 02:58:12;;;;;;;6.20;2.90;;;;;;;6.51;49.88;94515.06;4180765;28;20076;-78
2023/11/20 03:00:14;;;;;;;4.43;2.92;;;;;;;6.54;50.07;94512.22;4181609;28;20045;-81
2023/11/20 03:02:16;;;;;;;6.85;2.72;;;;;;;6.46;50.07;94517.28;4171617;28;20050;-78
2023/11/20 03:04:18;;;;;;;5.30;2.63;;;;;;;6.54;49.85;94530.44;4176138;28;20060;-76
2023/11/20 03:06:20;;;;;;;6.43;2.95;;;;;;;6.42;50.37;94521.13;4197817;28;20043;-77
2023/11/20 03:08:22;;;;;;;5.32;2.92;;;;;;;6.26;50.57;94518.25;4179570;28;20045;-79
2023/11/20 03:10:26;;;;;;;3.60;2.50;;;;;;;6.15;51.32;94517.44;4172804;28;20072;-77
2023/11/20 03:12:29;;;;;;;4.47;2.72;;;;;;;6.07;51.16;94516.47;4173146;28;20046;-77
2023/11/20 03:14:30;;;;;;;6.47;3.15;;;;;;;5.98;51.91;94514.66;4182270;28;20396;-78
2023/11/20 03:16:32;;;;;;;5.22;2.60;;;;;;;6.13;51.84;94506.34;4180462;28;20127;-77
2023/11/20 03:18:37;;;;;;;4.75;2.53;;;;;;;6.27;51.34;94499.09;4181310;28;20136;-78
2023/11/20 03:20:39;;;;;;;3.15;1.73;;;;;;;6.44;51.25;94485.38;4179862;28;20080;-80
2023/11/20 03:22:41;;;;;;;4.38;2.00;;;;;;;6.68;50.86;94484.09;4180196;28;20053;-79
2023/11/20 03:24:43;;;;;;;3.30;2.00;;;;;;;6.87;50.59;94478.84;4180355;28;20330;-79
2023/11/20 03:26:45;;;;;;;5.00;1.83;;;;;;;7.02;50.16;94467.97;4161719;28;20087;-80
2023/11/20 03:28:46;;;;;;;2.03;1.23;;;;;;;7.12;50.37;94461.75;4180287;28;20052;-79
2023/11/20 03:30:48;;;;;;;2.38;1.33;;;;;;;7.25;50.15;94460.59;4181060;28;20059;-77
2023/11/20 03:32:50;;;;;;;2.08;1.25;;;;;;;7.35;49.71;94470.00;4162749;28;20063;-78
2023/11/20 03:34:52;;;;;;;2.05;1.40;;;;;;;7.44;49.53;94470.09;4162982;28;20049;-78
2023/11/20 03:36:53;;;;;;;3.65;1.65;;;;;;;7.46;49.79;94462.97;4193728;28;20041;-77
2023/11/20 03:38:55;;;;;;;3.78;2.15;;;;;;;7.51;49.63;94471.19;4199523;28;20067;-79
2023/11/20 03:40:57;;;;;;;3.70;2.17;;;;;;;7.57;49.66;94462.75;4199092;28;20033;-79
2023/11/20 03:42:59;;;;;;;3.22;1.80;;;;;;;7.58;49.20;94456.59;4198960;28;20041;-77
2023/11/20 03:45:01;;;;;;;3.30;1.88;;;;;;;7.64;49.68;94456.00;4193594;28;20044;-80
2023/11/20 03:47:03;;;;;;;2.65;1.38;;;;;;;7.68;49.75;94454.75;4164074;28;20408;-78
2023/11/20 03:49:06;;;;;;;2.30;1.23;;;;;;;7.82;49.40;94468.25;4179107;28;20049;-77
2023/11/20 03:51:08;;;;;;;2.83;1.40;;;;;;;7.89;49.25;94464.06;4180076;28;20480;-80
2023/11/20 03:53:10;;;;;;;1.92;1.38;;;;;;;7.93;49.48;94461.00;4149532;28;20416;-79
2023/11/20 03:55:12;;;;;;;3.20;1.48;;;;;;;7.87;49.85;94460.78;4181361;28;20076;-79
2023/11/20 03:57:14;;;;;;;5.32;2.05;;;;;;;7.78;49.13;94459.88;4178252;28;20498;-79
2023/11/20 03:59:16;;;;;;;4.00;2.75;;;;;;;7.57;50.57;94447.09;4180467;28;20123;-79
2023/11/20 04:01:17;;;;;;;5.53;3.55;;;;;;;7.05;50.76;94450.25;4179503;28;20103;-78
2023/11/20 04:03:19;;;;;;;6.10;3.65;;;;;;;6.39;52.35;94445.94;4181233;28;20053;-80
2023/11/20 04:05:21;;;;;;;4.95;3.60;;;;;;;6.47;52.43;94453.03;4180070;28;20074;-80
2023/11/20 04:07:23;;;;;;;5.70;3.85;;;;;;;6.21;53.39;94435.41;4177780;28;20059;-78
2023/11/20 04:09:25;;;;;;;7.80;5.00;;;;;;;5.97;53.99;94448.84;4162531;28;20049;-78
2023/11/20 04:11:27;;;;;;;7.68;5.00;;;;;;;5.74;54.32;94449.09;4178272;28;20128;-78
2023/11/20 04:13:30;;;;;;;8.35;6.10;;;;;;;5.37;55.73;94463.66;4165833;28;20096;-77
2023/11/20 04:15:32;;;;;;;9.50;5.60;;;;;;;5.04;56.48;94463.84;4161943;28;20053;-79
2023/11/20 04:17:34;;;;;;;10.73;6.00;;;;;;;4.95;57.47;94463.78;4179847;28;20056;-79
2023/11/20 04:19:37;;;;;;;7.07;5.25;;;;;;;5.11;57.10;94467.53;4179924;28;20053;-79
2023/11/20 04:21:39;;;;;;;9.20;6.13;;;;;;;5.13;56.77;94473.44;4151416;28;20054;-80
2023/11/20 04:23:41;;;;;;;9.30;6.10;;;;;;;4.93;57.21;94469.94;4178182;28;20049;-79
2023/11/20 04:25:43;;;;;;;8.85;5.68;;;;;;;4.95;56.75;94458.59;4178578;28;20128;-80
2023/11/20 04:27:51;;;;;;;10.40;6.05;;;;;;;5.03;56.70;94463.97;4178739;28;20135;-80
2023/11/20 04:29:53;;;;;;;9.95;5.53;;;;;;;5.18;56.28;94467.84;4161920;28;20173;-77
2023/11/20 04:31:55;;;;;;;9.30;5.88;;;;;;;5.33;56.60;94471.72;4161399;28;20487;-79
2023/11/20 04:33:57;;;;;;;9.15;5.22;;;;;;;5.47;56.20;94485.28;4179691;28;20167;-79
2023/11/20 04:36:02;;;;;;;10.52;6.40;;;;;;;5.54;56.08;94487.22;4180079;28;20053;-80
2023/11/20 04:38:04;;;;;;;11.93;7.13;;;;;;;5.59;55.90;94497.19;4181661;28;20122;-80
2023/11/20 04:40:07;;;;;;;15.05;8.15;;;;;;;5.64;55.93;94495.03;4176254;28;20107;-80
2023/11/20 04:42:09;;;;;;;15.25;8.55;;;;;;;5.67;56.15;94494.75;4181316;28;20049;-78
2023/11/20 04:44:11;;;;;;;15.93;9.82;;;;;;;5.66;55.46;94489.72;4156168;28;20433;-79
2023/11/20 04:46:13;;;;;;;13.60;9.60;;;;;;;5.63;55.60;94488.19;4177985;28;20045;-80
2023/11/20 04:48:16;;;;;;;11.82;7.18;;;;;;;5.64;55.80;94489.84;4180080;28;20099;-80
2023/11/20 04:50:18;;;;;;;11.48;6.85;;;;;;;5.66;55.69;94485.34;4179137;28;20053;-79
2023/11/20 04:52:20;;;;;;;12.35;6.43;;;;;;;5.70;56.00;94478.91;4174357;28;20069;-80
2023/11/20 04:54:21;;;;;;;13.48;7.35;;;;;;;5.79;55.58;94489.47;4162878;28;20054;-80
2023/11/20 04:56:25;;;;;;;;;;;;;;;5.75;55.43;94497.50;4157211;28;20136;-79
2023/11/20 04:58:27;;;;;;;10.98;7.72;;;;;;;5.73;55.67;94496.81;4162847;28;19931;-80
2023/11/20 05:00:32;;;;;;;10.98;8.38;;;;;;;5.72;56.00;94505.59;4179379;28;20068;-80
2023/11/20 05:02:34;;;;;;;14.45;8.20;;;;;;;5.72;56.17;94503.00;4183675;28;20059;-80
2023/11/20 05:04:36;;;;;;;10.00;7.15;;;;;;;5.75;56.13;94500.13;4161928;28;20072;-80
2023/11/20 05:06:38;;;;;;;12.60;7.22;;;;;;;5.80;55.75;94501.50;4171346;28;20041;-80
2023/11/20 05:08:39;;;;;;;9.60;6.95;;;;;;;5.85;55.83;94509.69;4179198;28;20472;-81
2023/11/20 05:10:42;;;;;;;13.63;7.55;;;;;;;5.82;56.16;94507.38;4175495;28;20095;-80
2023/11/20 05:12:44;;;;;;;11.00;7.55;;;;;;;5.79;56.51;94516.28;4177123;28;20049;-80
2023/11/20 05:14:45;;;;;;;13.13;7.43;;;;;;;5.82;56.77;94509.97;4178470;28;20056;-79
2023/11/20 05:16:47;;;;;;;9.35;6.95;;;;;;;5.82;56.27;94502.19;4179204;28;20107;-80
2023/11/20 05:18:49;;;;;;;14.30;6.70;;;;;;;5.87;56.28;94499.97;4178905;28;20094;-78
2023/11/20 05:20:51;;;;;;;13.23;7.28;;;;;;;5.94;56.42;94503.72;4178981;28;20422;-81
2023/11/20 05:22:53;;;;;;;13.88;7.00;;;;;;;6.00;56.23;94504.94;4162075;28;20423;-79
2023/11/20 05:24:54;;;;;;;8.73;6.05;;;;;;;6.07;55.91;94506.88;4161643;28;20432;-81
2023/11/20 05:26:56;;;;;;;8.52;5.47;;;;;;;6.10;55.29;94493.59;4175710;28;20045;-79
2023/11/20 05:28:58;;;;;;;10.55;6.22;;;;;;;6.17;55.37;94490.47;4178744;28;20384;-81
2023/11/20 05:31:00;;;;;;;12.95;6.55;;;;;;;6.19;55.58;94483.34;4161208;28;20128;-79
2023/11/20 05:33:02;;;;;;;10.13;6.80;;;;;;;6.16;55.82;94489.63;4178599;28;20045;-81
2023/11/20 05:35:04;;;;;;;14.70;7.20;;;;;;;6.15;56.32;94498.38;4171219;28;20103;-80
2023/11/20 05:37:06;;;;;;;12.23;7.13;;;;;;;6.19;55.56;94494.56;4148490;28;20050;-82
2023/11/20 05:39:08;;;;;;;13.10;6.55;;;;;;;6.24;55.60;94494.13;4178860;28;20087;-79
2023/11/20 05:41:10;;;;;;;11.02;6.78;;;;;;;6.27;55.51;94499.09;4172430;28;20365;-83
2023/11/20 05:43:12;;;;;;;12.73;7.45;;;;;;;6.33;55.36;94495.94;4173890;28;20044;-80
2023/11/20 05:45:14;;;;;;;11.88;7.50;;;;;;;6.39;55.24;94499.75;4161677;28;20128;-81
2023/11/20 05:47:16;;;;;;;13.27;7.20;;;;;;;6.38;54.90;94492.91;4178316;28;20106;-80
2023/11/20 05:49:18;;;;;;;14.80;6.63;;;;;;;6.34;55.14;94505.38;4160550;28;20099;-80
2023/11/20 05:51:20;;;;;;;14.20;6.50;;;;;;;6.34;55.01;94513.19;4161082;28;20056;-82
2023/11/20 05:53:22;;;;;;;13.95;6.97;;;;;;;6.36;54.98;94511.25;4178788;28;20049;-80
2023/11/20 05:55:27;;;;;;;12.10;6.63;;;;;;;6.36;55.16;94512.06;4173302;28;20403;-81
2023/11/20 05:57:29;;;;;;;15.15;6.95;;;;;;;6.41;55.31;94503.88;4158965;28;20129;-80
2023/11/20 05:59:31;;;;;;;14.63;6.82;;;;;;;6.52;55.35;94510.72;4161114;28;20467;-81
2023/11/20 06:01:40;;;;;;;12.02;5.95;;;;;;;6.59;55.25;94497.97;4168980;28;20136;-81
2023/11/20 06:03:42;;;;;;;9.50;6.00;;;;;;;6.69;54.75;94506.56;4189236;28;20048;-80
2023/11/20 06:05:45;;;;;;;10.88;6.03;;;;;;;6.75;54.24;94513.81;4178209;28;20091;-81
2023/11/20 06:07:47;;;;;;;12.60;5.95;;;;;;;6.85;53.63;94516.41;4178272;28;20079;-80
2023/11/20 06:09:49;;;;;;;15.73;6.57;;;;;;;6.91;53.77;94524.47;4178563;28;20088;-79
2023/11/20 06:11:50;;;;;;;13.60;6.13;;;;;;;6.96;53.92;94526.66;4177032;28;20088;-81
2023/11/20 06:13:52;;;;;;;18.58;6.90;;;;;;;6.97;53.15;94516.09;4160798;28;20104;-80
2023/11/20 06:15:54;;;;;;;12.80;6.78;;;;;;;6.90;53.04;94499.38;4178853;28;20507;-80
2023/11/20 06:17:57;;;;;;;12.45;7.20;;;;;;;6.90;53.54;94499.38;4181966;28;20041;-81
2023/11/20 06:19:58;;;;;;;21.73;8.77;;;;;;;6.94;54.25;94489.50;4177591;28;20095;-82
2023/11/20 06:22:00;;;;;;;19.35;8.07;;;;;;;6.97;53.70;94491.84;4161776;28;20128;-82
2023/11/20 06:24:02;;;;;;;30.20;7.93;;;;;;;7.02;53.79;94500.03;4178812;28;20049;-82
2023/11/20 06:26:04;;;;;;;24.17;8.32;;;;;;;7.03;53.82;94506.88;4177914;28;20677;-82
2023/11/20 06:28:06;;;;;;;19.13;7.45;;;;;;;6.73;54.20;94505.31;4176152;28;20063;-80
2023/11/20 06:30:10;;;;;;;13.57;7.20;;;;;;;6.69;54.64;94511.75;4169359;28;20083;-82
2023/11/20 06:32:14;;;;;;;13.75;7.15;;;;;;;6.72;54.61;94503.69;4173864;28;20049;-82
2023/11/20 06:34:17;;;;;;;13.75;7.43;;;;;;;6.54;54.23;94507.00;4175769;28;20133;-81
2023/11/20 06:36:19;;;;;;;15.52;7.32;;;;;;;6.62;54.65;94510.69;4179075;28;20128;-80
2023/11/20 06:38:21;;;;;;;16.38;7.90;;;;;;;6.56;54.60;94512.91;4161168;28;20251;-81
2023/11/20 06:40:23;;;;;;;14.95;7.68;;;;;;;6.37;54.83;94512.91;4179027;28;20538;-84
2023/11/20 06:42:25;;;;;;;15.15;8.70;;;;;;;6.27;55.57;94509.50;4159980;28;20095;-81
2023/11/20 06:44:26;;;;;;;13.65;7.82;;;;;;;6.09;55.80;94524.97;4178548;28;20086;-81
2023/11/20 06:46:28;;;;;;;14.05;8.27;;;;;;;6.26;55.85;94529.50;4178730;28;20101;-80
2023/11/20 06:48:33;;;;;;;16.42;8.35;;;;;;;6.36;55.53;94532.06;4161212;28;20053;-80
2023/11/20 06:50:35;;;;;;;17.23;9.07;;;;;;;6.57;55.40;94532.75;4178177;28;20053;-78
2023/11/20 06:52:38;;;;;;;20.70;8.93;;;;;;;6.82;54.63;94522.72;4177114;28;20052;-81
2023/11/20 06:54:40;;;;;;;18.80;8.90;;;;;;;7.10;54.31;94526.22;4177892;28;20511;-80
2023/11/20 06:56:42;;;;;;;14.93;8.40;;;;;;;7.22;53.93;94523.41;4174848;28;20088;-79
2023/11/20 06:58:44;;;;;;;15.30;8.73;;;;;;;7.38;53.60;94527.06;4178286;28;20498;-81
2023/11/20 07:00:45;;;;;;;21.05;9.10;;;;;;;7.41;53.19;94525.13;4174571;28;20050;-82
2023/11/20 07:02:47;;;;;;;18.17;9.65;;;;;;;7.25;53.43;94520.50;4176722;28;20052;-83
2023/11/20 07:04:49;;;;;;;17.77;9.07;;;;;;;7.43;53.63;94518.00;4179663;28;20140;-82
2023/11/20 07:06:51;;;;;;;16.15;8.88;;;;;;;7.61;52.97;94516.25;4161047;28;20061;-82
2023/11/20 07:08:54;;;;;;;17.27;9.18;;;;;;;7.75;52.65;94515.75;4181120;28;20496;-81
2023/11/20 07:10:59;;;;;;;15.30;9.07;;;;;;;7.89;52.20;94516.22;4180632;28;20128;-82
2023/11/20 07:13:04;;;;;;;17.67;9.82;;;;;;;7.99;52.49;94514.38;4180877;28;20132;-82
2023/11/20 07:15:07;;;;;;;13.15;8.35;;;;;;;7.89;51.83;94522.25;4181691;28;20460;-81
2023/11/20 07:17:09;;;;;;;17.75;9.13;;;;;;;7.99;52.55;94532.63;4181560;28;20044;-81
2023/11/20 07:19:10;;;;;;;14.05;9.25;;;;;;;8.08;51.96;94529.13;4181511;28;20044;-81
2023/11/20 07:21:13;;;;;;;18.48;8.52;;;;;;;8.25;51.54;94531.91;4159757;28;20483;-81
2023/11/20 07:23:15;;;;;;;15.20;8.85;;;;;;;8.36;51.57;94529.88;4174844;28;20404;-82
2023/11/20 07:25:17;;;;;;;16.77;9.05;;;;;;;8.30;50.44;94530.50;4177231;28;20155;-82
2023/11/20 07:27:18;;;;;;;16.98;8.07;;;;;;;8.14;50.22;94535.56;4183887;28;20041;-81
2023/11/20 07:29:20;;;;;;;13.85;7.82;;;;;;;8.21;50.66;94523.56;4181181;28;20128;-81
2023/11/20 07:31:28;;;;;;;16.30;9.02;;;;;;;8.41;49.90;94521.66;4185329;28;20148;-81
2023/11/20 07:33:30;;;;;;;15.80;7.72;;;;;;;8.59;49.64;94514.63;4179756;28;20548;-82
2023/11/20 07:35:32;;;;;;;15.38;7.25;;;;;;;8.70;48.97;94516.16;4181976;28;20438;-81
2023/11/20 07:37:37;;;;;;;13.07;7.72;;;;;;;8.72;48.46;94510.81;4162691;28;20052;-81
2023/11/20 07:39:39;;;;;;;17.38;8.57;;;;;;;8.90;48.70;94510.75;4163515;28;20061;-83
2023/11/20 07:41:40;;;;;;;20.60;7.90;;;;;;;9.09;48.12;94514.97;4158259;28;20053;-81
2023/11/20 07:43:43;;;;;;;21.15;7.90;;;;;;;9.20;47.91;94510.28;4179797;28;20135;-80
2023/11/20 07:45:45;;;;;;;15.77;7.95;;;;;;;9.02;47.50;94505.13;4180854;28;20128;-80
2023/11/20 07:47:47;;;;;;;15.75;7.70;;;;;;;8.92;47.75;94493.94;4183963;28;20240;-80
2023/11/20 07:49:49;;;;;;;17.17;8.63;;;;;;;9.05;48.00;94492.72;4185551;28;20095;-79
2023/11/20 07:51:51;;;;;;;22.52;8.10;;;;;;;9.25;47.31;94488.09;4165670;28;20054;-80
2023/11/20 07:53:53;;;;;;;15.52;8.25;;;;;;;9.42;47.43;94472.34;4171090;28;20045;-81
2023/11/20 07:55:56;;;;;;;19.77;9.15;;;;;;;9.63;46.55;94476.31;4139752;28;20050;-80
2023/11/20 07:57:57;;;;;;;22.48;9.38;;;;;;;9.76;46.22;94476.69;4176780;28;20059;-79
2023/11/20 08:00:00;;;;;;;13.75;8.05;;;;;;;9.68;46.85;94473.22;4179234;28;20132;-83
2023/11/20 08:02:02;;;;;;;18.27;7.78;;;;;;;9.69;46.97;94475.69;4174525;28;20041;-81
2023/11/20 08:04:04;;;;;;;14.88;8.80;;;;;;;9.47;46.60;94473.66;4153739;28;20102;-83
2023/11/20 08:06:06;;;;;;;22.52;9.55;;;;;;;9.54;46.99;94479.88;4182431;28;20049;-80
2023/11/20 08:08:21;;;;;;;16.40;9.30;;;;;;;9.20;47.17;94475.47;4171793;28;20049;-81
2023/11/20 08:10:22;;;;;;;12.07;7.25;;;;;;;9.21;46.98;94474.53;4180242;28;20478;-79
2023/11/20 08:12:24;;;;;;;14.57;7.40;;;;;;;9.23;47.19;94469.97;4185802;28;20048;-78
2023/11/20 08:14:26;;;;;;;17.63;6.65;;;;;;;9.16;47.98;94468.94;4186328;28;20648;-80
2023/11/20 08:16:28;;;;;;;16.10;8.63;;;;;;;9.07;47.69;94470.69;4183965;28;20470;-81
2023/11/20 08:18:30;;;;;;;17.13;8.77;;;;;;;9.10;48.11;94470.38;4181938;28;20195;-83
2023/11/20 08:20:33;;;;;;;24.10;11.30;;;;;;;9.16;47.29;94477.63;4180647;28;20059;-81
2023/11/20 08:22:36;;;;;;;11.68;5.80;;;;;;;9.25;47.18;94464.56;4181074;28;20449;-82
2023/11/20 08:24:38;;;;;;;11.02;5.30;;;;;;;9.00;47.87;94459.22;4163377;28;20054;-81
2023/11/20 08:26:40;;;;;;;23.27;11.35;;;;;;;9.01;48.14;94472.16;4160817;28;20049;-81
2023/11/20 08:28:43;;;;;;;24.70;10.30;;;;;;;9.10;47.81;94469.53;4180119;28;20060;-81
2023/11/20 08:30:45;;;;;;;25.47;11.13;;;;;;;9.26;47.27;94455.75;4166026;28;20077;-81
2023/11/20 08:32:47;;;;;;;31.45;14.90;;;;;;;9.32;47.45;94460.38;4163308;28;20317;-80
2023/11/20 08:34:48;;;;;;;15.82;5.45;;;;;;;9.30;47.47;94459.69;4166710;28;20060;-81
2023/11/20 08:36:50;;;;;;;12.88;5.20;;;;;;;9.24;48.21;94463.75;4182167;28;20055;-79
2023/11/20 08:38:52;;;;;;;10.77;5.00;;;;;;;9.43;47.90;94449.63;4180634;28;20040;-81
2023/11/20 08:40:54;;;;;;;11.88;5.00;;;;;;;9.58;48.04;94449.81;4179892;28;20053;-82
2023/11/20 08:42:56;;;;;;;12.95;4.53;;;;;;;9.79;48.01;94452.00;4181601;28;20176;-78
2023/11/20 08:44:59;;;;;;;14.55;5.63;;;;;;;9.89;47.31;94452.66;4172909;28;20067;-80
2023/11/20 08:47:01;;;;;;;9.90;5.35;;;;;;;10.22;47.30;94450.13;4172691;28;20087;-79
2023/11/20 08:49:06;;;;;;;10.68;5.50;;;;;;;10.60;46.36;94453.91;4174565;28;20061;-83
2023/11/20 08:51:08;;;;;;;8.82;5.30;;;;;;;10.71;45.19;94457.16;4156365;28;20527;-81
2023/11/20 08:53:10;;;;;;;9.90;4.55;;;;;;;10.71;45.62;94455.38;4145154;28;20058;-81
2023/11/20 08:55:12;;;;;;;13.18;5.15;;;;;;;10.72;45.26;94456.19;4166778;28;20055;-82
2023/11/20 08:57:14;;;;;;;14.60;5.72;;;;;;;10.78;45.99;94455.53;4159863;28;20449;-80
2023/11/20 08:59:16;;;;;;;10.77;5.25;;;;;;;10.98;45.47;94458.59;4153094;28;20132;-80
2023/11/20 09:01:29;;;;;;;15.82;7.38;;;;;;;10.92;45.26;94452.19;4178310;28;20041;-80
2023/11/20 09:03:31;;;;;;;11.02;6.10;;;;;;;11.05;45.52;94455.13;4184825;28;20067;-83
2023/11/20 09:05:33;;;;;;;21.35;6.55;;;;;;;11.43;45.11;94449.28;4145497;28;20050;-82
2023/11/20 09:07:35;;;;;;;17.33;6.85;;;;;;;11.65;44.97;94443.25;4159290;28;20083;-83
2023/11/20 09:09:37;;;;;;;11.20;5.85;;;;;;;11.98;44.47;94443.13;4155966;28;20180;-83
2023/11/20 09:11:39;;;;;;;13.13;6.20;;;;;;;12.25;43.85;94436.53;4177808;28;20439;-79
2023/11/20 09:13:41;;;;;;;10.50;5.63;;;;;;;12.15;43.47;94428.06;4135600;28;20149;-84
2023/11/20 09:15:43;;;;;;;10.90;6.07;;;;;;;12.33;43.18;94429.59;4161680;28;20057;-82
2023/11/20 09:17:45;;;;;;;9.27;4.40;;;;;;;12.33;43.05;94425.16;4173683;28;20527;-79
2023/11/20 09:19:46;;;;;;;9.88;3.90;;;;;;;12.17;43.67;94425.25;4175627;28;20076;-79
2023/11/20 09:21:48;;;;;;;9.45;3.67;;;;;;;12.28;43.95;94423.06;4178847;28;20045;-81
2023/11/20 09:23:50;;;;;;;9.93;3.30;;;;;;;12.16;44.13;94424.44;4162145;28;20055;-80
2023/11/20 09:25:52;;;;;;;7.95;3.13;;;;;;;12.44;44.28;94431.78;4179739;28;20061;-81
2023/11/20 09:27:56;;;;;;;7.45;3.53;;;;;;;12.44;43.62;94421.28;4174526;28;20087;-81
2023/11/20 09:29:59;;;;;;;12.48;3.70;;;;;;;12.12;44.20;94420.53;4161158;28;20049;-81
2023/11/20 09:32:02;;;;;;;9.05;3.58;;;;;;;12.32;44.15;94423.50;4161001;28;20041;-82
2023/11/20 09:34:04;;;;;;;16.67;3.80;;;;;;;12.28;43.78;94414.34;4163751;28;20132;-81
2023/11/20 09:36:06;;;;;;;5.90;3.08;;;;;;;12.54;43.95;94418.41;4180956;28;20483;-83
2023/11/20 09:38:09;;;;;;;10.85;3.70;;;;;;;12.78;43.58;94407.66;4179925;28;20429;-82
2023/11/20 09:40:13;;;;;;;11.75;2.95;;;;;;;12.92;43.63;94406.03;4160153;28;20045;-81